Time;durP1;ratioP1;P1;durP2;ratioP2;P2;SDS_P1;SDS_P2;PMS_P1;PMS_P2;Temp;Humidity;BMP_temperature;BMP_pressure;BME280_temperature;BME280_humidity;BME280_pressure;Samples;Min_cycle;Max_cycle;Signal;HPM_P1;HPM_P2
2022/03/01 00:02:18;;;;;;;13.13;7.55;;;4.10;99.90;;;;;;5100706;27;20475;-83
2022/03/01 00:04:44;;;;;;;14.82;8.25;;;4.00;99.90;;;;;;5117226;27;20058;-84
2022/03/01 00:07:09;;;;;;;13.95;7.45;;;4.00;99.90;;;;;;5121206;27;20125;-84
2022/03/01 00:09:36;;;;;;;14.02;8.18;;;4.00;99.90;;;;;;5121210;27;20042;-83
2022/03/01 00:12:02;;;;;;;16.10;8.88;;;4.10;99.90;;;;;;5111481;27;20092;-83
2022/03/01 00:14:28;;;;;;;13.43;7.15;;;3.90;99.90;;;;;;5084179;27;20120;-84
2022/03/01 00:16:54;;;;;;;13.52;7.72;;;3.90;99.90;;;;;;5098946;27;20480;-83
2022/03/01 00:19:20;;;;;;;14.60;8.07;;;4.50;99.90;;;;;;5102242;27;20039;-84
2022/03/01 00:21:46;;;;;;;14.48;8.32;;;3.90;99.90;;;;;;5104301;27;20092;-85
2022/03/01 00:24:11;;;;;;;13.02;7.65;;;3.90;99.90;;;;;;5121714;27;20081;-84
2022/03/01 00:26:37;;;;;;;15.00;7.80;;;3.90;99.90;;;;;;5103329;27;20062;-83
2022/03/01 00:29:03;;;;;;;14.20;7.90;;;3.80;99.90;;;;;;5116805;27;20540;-84
2022/03/01 00:31:29;;;;;;;14.90;7.43;;;3.70;99.90;;;;;;5101319;27;20069;-84
2022/03/01 00:33:54;;;;;;;13.48;8.10;;;4.20;99.90;;;;;;5109859;27;20046;-84
2022/03/01 00:36:20;;;;;;;13.70;8.27;;;4.00;99.90;;;;;;5137994;27;20423;-84
2022/03/01 00:38:46;;;;;;;15.20;8.43;;;3.60;99.90;;;;;;5100280;27;20051;-84
2022/03/01 00:41:11;;;;;;;14.43;8.27;;;4.40;99.90;;;;;;5112975;28;20407;-84
2022/03/01 00:43:37;;;;;;;14.25;8.85;;;3.60;99.90;;;;;;5103439;27;20042;-84
2022/03/01 00:46:03;;;;;;;16.30;8.82;;;3.90;99.90;;;;;;5103960;27;20042;-84
2022/03/01 00:48:28;;;;;;;15.43;9.82;;;3.90;99.90;;;;;;5137662;27;20472;-84
2022/03/01 00:50:54;;;;;;;14.25;8.70;;;4.40;99.90;;;;;;5120405;27;20532;-84
2022/03/01 00:53:20;;;;;;;14.40;8.13;;;3.50;99.90;;;;;;5120704;27;20417;-84
2022/03/01 00:55:45;;;;;;;17.52;8.40;;;3.70;99.90;;;;;;5137565;27;20415;-84
2022/03/01 00:58:11;;;;;;;15.05;8.40;;;4.20;99.90;;;;;;5117153;27;20043;-84
2022/03/01 01:00:37;;;;;;;15.07;8.25;;;3.50;99.90;;;;;;5114181;27;20043;-85
2022/03/01 01:03:03;;;;;;;15.57;9.00;;;4.20;99.90;;;;;;5099157;27;20051;-84
2022/03/01 01:05:29;;;;;;;13.40;7.72;;;3.90;99.90;;;;;;5134207;27;20050;-84
2022/03/01 01:07:55;;;;;;;17.13;9.75;;;3.40;99.90;;;;;;5137255;27;20053;-83
2022/03/01 01:10:22;;;;;;;13.70;7.75;;;4.10;99.90;;;;;;5137213;27;20390;-85
2022/03/01 01:12:48;;;;;;;16.75;9.55;;;3.40;99.90;;;;;;5137215;27;20117;-83
2022/03/01 01:15:16;;;;;;;16.75;9.13;;;3.40;99.90;;;;;;5116703;27;20567;-84
2022/03/01 01:17:42;;;;;;;16.17;9.07;;;3.30;99.90;;;;;;5109402;27;20079;-84
2022/03/01 01:20:09;;;;;;;15.00;8.88;;;3.90;99.90;;;;;;5120028;27;20046;-84
2022/03/01 01:22:40;;;;;;;15.57;8.70;;;3.20;99.90;;;;;;5122991;27;20042;-84
2022/03/01 01:25:15;;;;;;;15.70;8.98;;;3.30;99.90;;;;;;5117818;27;20054;-84
2022/03/01 01:27:44;;;;;;;14.32;9.23;;;3.20;99.90;;;;;;5119817;27;20093;-84
2022/03/01 01:30:18;;;;;;;14.98;9.23;;;3.20;99.90;;;;;;5118018;27;20099;-83
2022/03/01 01:32:45;;;;;;;15.68;9.52;;;3.20;99.90;;;;;;5121905;27;20415;-83
2022/03/01 01:35:13;;;;;;;16.45;8.80;;;3.10;99.90;;;;;;5119424;27;20125;-83
2022/03/01 01:37:39;;;;;;;16.25;9.43;;;3.80;99.90;;;;;;5111498;27;20042;-83
2022/03/01 01:40:10;;;;;;;15.68;9.63;;;3.10;99.90;;;;;;5119497;27;20047;-84
2022/03/01 01:42:35;;;;;;;16.00;9.57;;;3.00;99.90;;;;;;5136454;27;20039;-84
2022/03/01 01:45:02;;;;;;;18.25;9.45;;;3.00;99.90;;;;;;5090798;27;20046;-84
2022/03/01 01:47:28;;;;;;;17.48;9.68;;;3.00;99.90;;;;;;5115206;27;20479;-84
2022/03/01 01:49:54;;;;;;;17.45;9.75;;;3.00;99.90;;;;;;5119896;27;20103;-84
2022/03/01 01:52:20;;;;;;;17.33;9.45;;;3.00;99.90;;;;;;5107225;27;20482;-84
2022/03/01 01:54:45;;;;;;;16.58;9.30;;;3.70;99.90;;;;;;5100243;27;20057;-83
2022/03/01 01:57:20;;;;;;;16.92;9.32;;;3.50;99.90;;;;;;5098563;27;20047;-86
2022/03/01 01:59:48;;;;;;;17.55;9.90;;;3.30;99.90;;;;;;5119319;27;20042;-84
2022/03/01 02:02:16;;;;;;;16.63;9.05;;;3.10;99.90;;;;;;5136244;27;20050;-84
2022/03/01 02:04:43;;;;;;;15.48;9.15;;;3.20;99.90;;;;;;5134858;27;20099;-84
2022/03/01 02:07:10;;;;;;;17.67;9.25;;;2.80;99.90;;;;;;5116877;27;20039;-84
2022/03/01 02:09:36;;;;;;;16.58;9.70;;;2.90;99.90;;;;;;5119145;27;20061;-83
2022/03/01 02:12:03;;;;;;;17.52;9.30;;;2.80;99.90;;;;;;5119154;27;20047;-84
2022/03/01 02:14:33;;;;;;;20.40;9.75;;;2.80;99.90;;;;;;5133773;27;20059;-84
2022/03/01 02:17:03;;;;;;;16.25;9.45;;;2.80;99.90;;;;;;5086400;27;20051;-84
2022/03/01 02:19:29;;;;;;;17.60;9.68;;;3.20;99.90;;;;;;5111814;28;20044;-84
2022/03/01 02:21:55;;;;;;;22.23;9.93;;;3.70;99.90;;;;;;5121756;27;20057;-84
2022/03/01 02:24:23;;;;;;;19.05;10.02;;;2.90;99.90;;;;;;5115954;28;20055;-84
2022/03/01 02:26:52;;;;;;;15.48;9.18;;;3.30;99.90;;;;;;5102905;27;20049;-83
2022/03/01 02:29:18;;;;;;;19.33;10.65;;;2.80;99.90;;;;;;5119200;27;20039;-84
2022/03/01 02:31:44;;;;;;;19.17;9.80;;;3.50;99.90;;;;;;5136282;27;20049;-84
2022/03/01 02:34:09;;;;;;;15.93;9.23;;;3.60;99.90;;;;;;5119168;27;20576;-84
2022/03/01 02:36:35;;;;;;;17.42;9.52;;;3.30;99.90;;;;;;5101747;27;20080;-84
2022/03/01 02:39:01;;;;;;;19.65;10.15;;;3.40;99.90;;;;;;5135389;27;20069;-84
2022/03/01 02:41:26;;;;;;;17.00;10.60;;;2.60;99.90;;;;;;5107298;28;20142;-83
2022/03/01 02:43:52;;;;;;;14.68;9.07;;;2.60;99.90;;;;;;5112549;27;20043;-83
2022/03/01 02:46:18;;;;;;;21.75;10.75;;;3.40;99.90;;;;;;5115879;27;20042;-83
2022/03/01 02:48:43;;;;;;;16.65;10.13;;;2.60;99.90;;;;;;5119089;27;20168;-83
2022/03/01 02:51:09;;;;;;;16.88;9.77;;;3.60;99.90;;;;;;5083249;28;20051;-83
2022/03/01 02:53:36;;;;;;;17.45;9.73;;;2.50;99.90;;;;;;5101427;27;20046;-83
2022/03/01 02:56:03;;;;;;;16.42;10.75;;;2.50;99.90;;;;;;5096003;28;20074;-84
2022/03/01 02:58:29;;;;;;;18.23;9.73;;;3.50;99.90;;;;;;5118325;27;20071;-84
2022/03/01 03:00:55;;;;;;;16.55;9.50;;;3.40;99.90;;;;;;5099096;27;20144;-84
2022/03/01 03:03:21;;;;;;;18.65;10.60;;;2.40;99.90;;;;;;5104663;27;20050;-85
2022/03/01 03:05:47;;;;;;;19.20;10.70;;;2.40;99.90;;;;;;5120540;27;20055;-83
2022/03/01 03:08:12;;;;;;;19.90;10.02;;;2.40;99.90;;;;;;5139693;27;20135;-83
2022/03/01 03:10:38;;;;;;;20.02;10.00;;;2.30;99.90;;;;;;5128665;27;20051;-83
2022/03/01 03:13:04;;;;;;;18.15;10.02;;;3.00;99.90;;;;;;5133142;27;20111;-85
2022/03/01 03:15:31;;;;;;;18.58;10.20;;;3.30;99.90;;;;;;5102105;27;20043;-83
2022/03/01 03:17:57;;;;;;;17.70;9.50;;;2.40;99.90;;;;;;5118136;27;20360;-83
2022/03/01 03:20:23;;;;;;;19.73;11.00;;;2.70;99.90;;;;;;5122280;27;20104;-83
2022/03/01 03:22:48;;;;;;;21.10;9.98;;;2.40;99.90;;;;;;5119660;27;20475;-83
2022/03/01 03:25:15;;;;;;;17.25;9.88;;;2.40;99.90;;;;;;5118224;27;20559;-83
2022/03/01 03:27:40;;;;;;;18.48;10.35;;;2.70;99.90;;;;;;5122429;27;20138;-83
2022/03/01 03:30:08;;;;;;;20.83;10.05;;;2.30;99.90;;;;;;5122352;27;20085;-84
2022/03/01 03:32:33;;;;;;;15.98;9.48;;;2.30;99.90;;;;;;5139109;27;20038;-83
2022/03/01 03:34:59;;;;;;;18.75;9.95;;;2.40;99.90;;;;;;5101862;27;20053;-83
2022/03/01 03:37:25;;;;;;;16.73;9.85;;;3.00;99.90;;;;;;5105193;27;20047;-84
2022/03/01 03:39:51;;;;;;;19.17;10.95;;;2.40;99.90;;;;;;5104821;27;20051;-83
2022/03/01 03:42:17;;;;;;;16.88;10.07;;;2.20;99.90;;;;;;5105136;27;20076;-83
2022/03/01 03:44:43;;;;;;;17.67;9.57;;;3.00;99.90;;;;;;5121722;27;20042;-83
2022/03/01 03:47:09;;;;;;;16.90;10.43;;;2.80;99.90;;;;;;5121668;27;20043;-83
2022/03/01 03:49:36;;;;;;;18.67;9.82;;;2.60;99.90;;;;;;5121941;27;20494;-83
2022/03/01 03:52:03;;;;;;;18.25;10.05;;;3.10;99.90;;;;;;5118308;27;20058;-83
2022/03/01 03:54:29;;;;;;;16.88;9.77;;;2.20;99.90;;;;;;5134295;27;20057;-84
2022/03/01 03:56:55;;;;;;;17.80;10.00;;;3.00;99.90;;;;;;5135738;27;20043;-84
2022/03/01 03:59:21;;;;;;;18.65;9.98;;;2.20;99.90;;;;;;5130163;27;20542;-83
2022/03/01 04:01:47;;;;;;;25.73;10.40;;;2.50;99.90;;;;;;5092262;27;20130;-83
2022/03/01 04:04:13;;;;;;;20.98;10.75;;;2.20;99.90;;;;;;5121206;27;20058;-83
2022/03/01 04:06:39;;;;;;;19.00;9.38;;;3.20;99.90;;;;;;5137844;27;20043;-84
2022/03/01 04:09:06;;;;;;;18.90;10.77;;;2.30;99.90;;;;;;5148947;27;20086;-83
2022/03/01 04:11:33;;;;;;;18.75;10.50;;;2.30;99.90;;;;;;5104567;27;20129;-84
2022/03/01 04:13:59;;;;;;;18.52;9.77;;;2.30;99.90;;;;;;5104706;27;20487;-83
2022/03/01 04:16:27;;;;;;;19.38;10.85;;;2.30;99.90;;;;;;5117451;27;20133;-83
2022/03/01 04:18:54;;;;;;;20.02;10.00;;;2.90;99.90;;;;;;5104674;27;20062;-84
2022/03/01 04:21:20;;;;;;;16.80;9.85;;;2.30;99.90;;;;;;5131643;27;20039;-82
2022/03/01 04:23:47;;;;;;;17.80;10.77;;;3.50;99.90;;;;;;5100532;27;20043;-83
2022/03/01 04:26:13;;;;;;;19.83;10.00;;;2.30;99.90;;;;;;5109379;27;20129;-83
2022/03/01 04:28:39;;;;;;;19.10;11.48;;;2.80;99.90;;;;;;5112382;27;20506;-84
2022/03/01 04:31:05;;;;;;;18.95;9.55;;;2.30;99.90;;;;;;5078511;27;20054;-83
2022/03/01 04:33:30;;;;;;;15.48;9.30;;;2.80;99.90;;;;;;5112732;27;20048;-83
2022/03/01 04:35:59;;;;;;;17.17;9.90;;;3.50;99.90;;;;;;5118346;27;20063;-83
2022/03/01 04:38:25;;;;;;;16.52;9.43;;;2.90;99.90;;;;;;5116135;27;20493;-83
2022/03/01 04:40:52;;;;;;;19.92;10.20;;;3.00;99.90;;;;;;5123046;27;20047;-83
2022/03/01 04:43:19;;;;;;;16.55;9.02;;;2.70;99.90;;;;;;5115877;27;20121;-83
2022/03/01 04:45:45;;;;;;;20.23;11.18;;;2.40;99.90;;;;;;5130163;27;20042;-83
2022/03/01 04:48:11;;;;;;;15.35;9.45;;;2.80;99.90;;;;;;5135821;27;20051;-83
2022/03/01 04:50:37;;;;;;;17.80;9.68;;;2.40;99.90;;;;;;5120736;27;20475;-83
2022/03/01 04:53:03;;;;;;;20.00;10.90;;;2.40;99.90;;;;;;5137442;27;20483;-84
2022/03/01 04:55:29;;;;;;;20.00;10.45;;;2.40;99.90;;;;;;5120565;27;20047;-83
2022/03/01 04:57:55;;;;;;;18.42;10.75;;;2.40;99.90;;;;;;5137501;27;20050;-84
2022/03/01 05:00:21;;;;;;;19.85;10.75;;;2.70;99.90;;;;;;5118004;27;20372;-84
2022/03/01 05:02:47;;;;;;;19.25;10.85;;;2.40;99.90;;;;;;5116390;27;20389;-84
2022/03/01 05:05:14;;;;;;;18.23;9.80;;;3.30;99.90;;;;;;5123096;27;20099;-84
2022/03/01 05:07:42;;;;;;;19.88;10.90;;;3.10;99.90;;;;;;5099941;27;20122;-85
2022/03/01 05:10:09;;;;;;;17.75;10.43;;;3.00;99.90;;;;;;5099868;27;20430;-83
2022/03/01 05:12:42;;;;;;;17.77;10.32;;;2.90;99.90;;;;;;5099919;27;20047;-83
2022/03/01 05:15:08;;;;;;;19.00;10.63;;;2.30;99.90;;;;;;5108911;27;20049;-85
2022/03/01 05:17:34;;;;;;;20.00;11.23;;;2.30;99.90;;;;;;5109003;27;20122;-83
2022/03/01 05:20:01;;;;;;;17.60;10.38;;;3.10;99.90;;;;;;5133714;27;20129;-83
2022/03/01 05:22:27;;;;;;;19.20;11.25;;;2.40;99.90;;;;;;5119964;27;20126;-83
2022/03/01 05:24:52;;;;;;;22.88;12.32;;;2.30;99.90;;;;;;5137065;27;20080;-83
2022/03/01 05:27:18;;;;;;;19.98;10.30;;;2.20;99.90;;;;;;5112864;28;20038;-83
2022/03/01 05:29:44;;;;;;;21.73;10.73;;;2.20;99.90;;;;;;5102903;27;20057;-83
2022/03/01 05:32:11;;;;;;;17.08;10.95;;;2.30;99.90;;;;;;5103325;27;20046;-84
2022/03/01 05:34:37;;;;;;;19.27;10.88;;;2.80;99.90;;;;;;5119797;27;20070;-84
2022/03/01 05:37:03;;;;;;;19.75;10.48;;;3.20;99.90;;;;;;5085861;27;20049;-83
2022/03/01 05:39:29;;;;;;;22.55;11.38;;;2.30;99.90;;;;;;5099584;27;20043;-85
2022/03/01 05:41:55;;;;;;;17.90;10.52;;;2.30;99.90;;;;;;5118431;27;20114;-83
2022/03/01 05:44:21;;;;;;;17.48;10.77;;;2.50;99.90;;;;;;5131027;27;20046;-84
2022/03/01 05:46:47;;;;;;;18.45;11.02;;;2.20;99.90;;;;;;5107699;27;20038;-83
2022/03/01 05:49:12;;;;;;;18.55;10.32;;;2.70;99.90;;;;;;5065481;27;20047;-83
2022/03/01 05:51:38;;;;;;;20.80;10.98;;;2.50;99.90;;;;;;5108431;27;20046;-83
2022/03/01 05:54:04;;;;;;;20.55;11.00;;;2.20;99.90;;;;;;5110674;27;20046;-83
2022/03/01 05:56:30;;;;;;;20.98;10.50;;;2.80;99.90;;;;;;5099433;27;20099;-83
2022/03/01 05:58:56;;;;;;;17.10;10.55;;;2.20;99.90;;;;;;5119796;27;20103;-83
2022/03/01 06:01:22;;;;;;;17.80;10.55;;;2.80;99.90;;;;;;5114954;28;20422;-83
2022/03/01 06:03:48;;;;;;;23.48;11.38;;;2.10;99.90;;;;;;5089013;28;20051;-83
2022/03/01 06:06:14;;;;;;;19.17;10.10;;;2.10;99.90;;;;;;5122426;27;20076;-84
2022/03/01 06:08:39;;;;;;;20.77;11.32;;;2.90;99.90;;;;;;5132439;28;20126;-83
2022/03/01 06:11:05;;;;;;;22.17;11.00;;;2.10;99.90;;;;;;5092233;28;20070;-83
2022/03/01 06:13:31;;;;;;;20.77;11.40;;;3.10;99.90;;;;;;5132192;27;20483;-83
2022/03/01 06:15:59;;;;;;;21.27;11.15;;;2.10;99.90;;;;;;5119401;27;20121;-84
2022/03/01 06:18:25;;;;;;;17.83;10.63;;;2.90;99.90;;;;;;5110586;28;20039;-83
2022/03/01 06:20:51;;;;;;;20.10;11.35;;;2.10;99.90;;;;;;5104774;27;20065;-83
2022/03/01 06:23:16;;;;;;;23.85;11.98;;;2.10;99.90;;;;;;5101635;28;20148;-84
2022/03/01 06:25:44;;;;;;;19.90;11.70;;;2.10;99.90;;;;;;5125734;28;20050;-84
2022/03/01 06:28:10;;;;;;;20.38;11.00;;;2.70;99.90;;;;;;5082150;28;20480;-83
2022/03/01 06:30:37;;;;;;;18.77;12.57;;;2.10;99.90;;;;;;5115970;27;20058;-85
2022/03/01 06:33:04;;;;;;;20.20;10.57;;;2.10;99.90;;;;;;5136370;27;20135;-83
2022/03/01 06:35:30;;;;;;;20.88;10.93;;;2.80;99.90;;;;;;5098864;28;20394;-83
2022/03/01 06:37:57;;;;;;;18.02;10.45;;;2.10;99.90;;;;;;5098964;28;20047;-83
2022/03/01 06:40:23;;;;;;;18.92;10.95;;;3.00;99.90;;;;;;5133373;27;20068;-84
2022/03/01 06:42:49;;;;;;;19.00;10.93;;;2.10;99.90;;;;;;5105803;27;20092;-83
2022/03/01 06:45:15;;;;;;;19.20;10.63;;;3.00;99.90;;;;;;5135493;27;20047;-84
2022/03/01 06:47:41;;;;;;;17.77;10.43;;;2.20;99.90;;;;;;5122909;27;20055;-84
2022/03/01 06:50:08;;;;;;;20.95;11.48;;;2.90;99.90;;;;;;5139895;27;20604;-84
2022/03/01 06:52:35;;;;;;;20.15;11.38;;;2.40;99.90;;;;;;5123004;27;20188;-83
2022/03/01 06:55:06;;;;;;;18.58;10.20;;;2.20;99.90;;;;;;5105856;27;20420;-83
2022/03/01 06:57:32;;;;;;;19.50;11.23;;;2.30;99.90;;;;;;5139943;27;20050;-83
2022/03/01 06:59:58;;;;;;;22.25;10.85;;;2.50;99.90;;;;;;5119190;27;20088;-83
2022/03/01 07:02:27;;;;;;;20.40;11.05;;;2.30;99.90;;;;;;5105446;27;20471;-84
2022/03/01 07:04:54;;;;;;;20.45;10.73;;;3.10;99.90;;;;;;5106253;27;20096;-84
2022/03/01 07:07:22;;;;;;;20.33;11.00;;;2.70;99.90;;;;;;5105784;27;20074;-84
2022/03/01 07:09:48;;;;;;;18.52;10.43;;;2.40;99.90;;;;;;5138897;27;20057;-85
2022/03/01 07:12:14;;;;;;;18.50;10.98;;;2.80;99.90;;;;;;5123411;27;20059;-83
2022/03/01 07:14:40;;;;;;;18.85;11.07;;;2.50;99.90;;;;;;5101768;27;20057;-84
2022/03/01 07:17:05;;;;;;;18.52;10.27;;;3.20;99.90;;;;;;5101443;27;20043;-84
2022/03/01 07:19:31;;;;;;;19.20;10.90;;;3.00;99.90;;;;;;5084750;27;20055;-84
2022/03/01 07:21:57;;;;;;;20.40;11.45;;;2.70;99.90;;;;;;5084532;27;20134;-84
2022/03/01 07:24:22;;;;;;;17.17;10.35;;;2.70;99.90;;;;;;5069330;27;20089;-83
2022/03/01 07:26:49;;;;;;;19.95;11.05;;;3.10;99.90;;;;;;5120729;27;20053;-85
2022/03/01 07:29:15;;;;;;;19.80;10.68;;;3.70;99.90;;;;;;5085179;27;20437;-84
2022/03/01 07:31:41;;;;;;;16.90;10.30;;;3.80;99.90;;;;;;5124057;27;20074;-84
2022/03/01 07:34:07;;;;;;;19.70;10.77;;;3.80;99.90;;;;;;5122231;27;20108;-84
2022/03/01 07:36:33;;;;;;;18.35;10.85;;;4.10;99.90;;;;;;5122294;27;20047;-84
2022/03/01 07:38:59;;;;;;;21.55;11.25;;;4.20;99.90;;;;;;5122443;27;20068;-83
2022/03/01 07:41:25;;;;;;;19.55;10.73;;;3.60;99.90;;;;;;5088355;27;20068;-83
2022/03/01 07:43:51;;;;;;;18.00;9.85;;;4.20;99.90;;;;;;5105566;27;20042;-83
2022/03/01 07:46:17;;;;;;;18.52;10.95;;;4.40;99.90;;;;;;5104875;27;20086;-83
2022/03/01 07:48:43;;;;;;;22.48;11.25;;;3.70;99.90;;;;;;5122061;27;20093;-83
2022/03/01 07:51:09;;;;;;;20.48;10.55;;;3.50;99.90;;;;;;5121109;27;20046;-83
2022/03/01 07:53:35;;;;;;;20.65;10.50;;;3.60;99.90;;;;;;5121978;27;20137;-83
2022/03/01 07:56:01;;;;;;;17.80;10.52;;;3.60;99.90;;;;;;5105120;27;20539;-83
2022/03/01 07:58:27;;;;;;;19.40;10.80;;;4.50;99.90;;;;;;5104898;27;20103;-84
2022/03/01 08:00:52;;;;;;;17.05;9.98;;;3.90;99.90;;;;;;5121875;27;20494;-83
2022/03/01 08:03:18;;;;;;;22.13;10.40;;;4.00;99.90;;;;;;5104393;27;20054;-83
2022/03/01 08:05:45;;;;;;;17.98;10.02;;;4.50;99.90;;;;;;5104358;27;20051;-84
2022/03/01 08:08:11;;;;;;;20.30;10.73;;;4.10;99.90;;;;;;5121462;27;20503;-84
2022/03/01 08:10:37;;;;;;;22.50;11.63;;;4.20;99.90;;;;;;5119566;27;20088;-84
2022/03/01 08:13:03;;;;;;;18.33;10.55;;;4.20;99.90;;;;;;5131908;27;20070;-84
2022/03/01 08:15:28;;;;;;;17.27;10.20;;;4.30;99.90;;;;;;5138720;27;20038;-85
2022/03/01 08:17:56;;;;;;;20.55;11.15;;;4.30;99.90;;;;;;5121733;27;20047;-84
2022/03/01 08:20:23;;;;;;;15.93;10.40;;;4.90;99.90;;;;;;5116465;27;20045;-87
2022/03/01 08:22:49;;;;;;;20.92;10.55;;;4.50;99.90;;;;;;5128125;27;20039;-88
2022/03/01 08:25:15;;;;;;;20.40;10.90;;;4.80;99.90;;;;;;5121026;27;20095;-83
2022/03/01 08:27:41;;;;;;;18.38;10.38;;;4.50;99.90;;;;;;5117797;27;20039;-84
2022/03/01 08:30:07;;;;;;;19.20;10.40;;;4.60;99.90;;;;;;5084095;27;20066;-84
2022/03/01 08:32:33;;;;;;;18.45;11.18;;;4.60;99.90;;;;;;5101058;27;20039;-84
2022/03/01 08:34:59;;;;;;;19.48;10.90;;;4.90;99.90;;;;;;5101235;27;20108;-84
2022/03/01 08:37:26;;;;;;;19.05;10.68;;;5.40;99.90;;;;;;5083817;27;20043;-84
2022/03/01 08:39:52;;;;;;;16.40;10.00;;;4.80;99.90;;;;;;5100337;27;20047;-84
2022/03/01 08:42:18;;;;;;;22.75;10.63;;;4.80;99.90;;;;;;5100815;27;20368;-84
2022/03/01 08:44:44;;;;;;;17.10;10.73;;;4.80;99.90;;;;;;5100758;27;20039;-84
2022/03/01 08:47:10;;;;;;;18.70;10.50;;;4.80;99.90;;;;;;5100703;27;20039;-84
2022/03/01 08:49:36;;;;;;;18.05;10.70;;;4.70;99.90;;;;;;5100776;27;20081;-84
2022/03/01 08:52:02;;;;;;;20.13;11.38;;;5.10;99.90;;;;;;5100657;27;20047;-84
2022/03/01 08:54:27;;;;;;;16.98;10.27;;;4.70;99.90;;;;;;5100623;27;20043;-86
2022/03/01 08:56:53;;;;;;;21.45;11.80;;;4.80;99.90;;;;;;5083770;27;20104;-84
2022/03/01 08:59:20;;;;;;;20.83;11.32;;;4.70;99.90;;;;;;5107226;27;20126;-84
2022/03/01 09:01:45;;;;;;;18.35;10.50;;;4.70;99.90;;;;;;5116714;27;20050;-84
2022/03/01 09:04:11;;;;;;;24.38;11.20;;;5.30;99.90;;;;;;5095782;28;20044;-84
2022/03/01 09:06:37;;;;;;;17.83;10.80;;;4.70;99.90;;;;;;5096906;28;20035;-84
2022/03/01 09:09:03;;;;;;;19.00;11.25;;;5.10;99.90;;;;;;5096711;28;20051;-84
2022/03/01 09:11:29;;;;;;;19.75;10.70;;;5.60;99.90;;;;;;5113640;28;20065;-85
2022/03/01 09:13:54;;;;;;;18.98;10.25;;;5.70;99.90;;;;;;5096597;28;20040;-84
2022/03/01 09:16:20;;;;;;;19.48;10.95;;;5.00;99.90;;;;;;5113643;28;20043;-84
2022/03/01 09:18:46;;;;;;;22.33;11.43;;;5.30;99.90;;;;;;5113417;28;20445;-83
2022/03/01 09:21:11;;;;;;;18.50;10.60;;;5.40;99.90;;;;;;5096702;28;20044;-84
2022/03/01 09:23:37;;;;;;;18.63;11.25;;;5.60;99.90;;;;;;5096560;28;20507;-86
2022/03/01 09:26:03;;;;;;;22.00;11.88;;;5.40;99.90;;;;;;5105195;28;20043;-84
2022/03/01 09:28:29;;;;;;;20.77;11.60;;;5.70;99.90;;;;;;5079581;28;20052;-84
2022/03/01 09:30:55;;;;;;;19.58;10.73;;;5.90;99.90;;;;;;5096553;28;20052;-83
2022/03/01 09:33:21;;;;;;;18.00;9.95;;;6.10;99.90;;;;;;5079767;28;20392;-82
2022/03/01 09:35:47;;;;;;;17.90;10.05;;;6.00;99.90;;;;;;5112849;28;20051;-82
2022/03/01 09:38:13;;;;;;;19.13;10.38;;;6.40;99.90;;;;;;5079489;28;20055;-83
2022/03/01 09:40:39;;;;;;;20.23;9.68;;;6.20;99.90;;;;;;5095699;28;20549;-83
2022/03/01 09:43:05;;;;;;;20.88;11.25;;;6.20;99.90;;;;;;5061778;28;20052;-83
2022/03/01 09:45:31;;;;;;;16.90;9.85;;;6.10;99.90;;;;;;5078723;28;20055;-83
2022/03/01 09:47:57;;;;;;;16.25;9.70;;;6.20;99.90;;;;;;5078645;28;20058;-83
2022/03/01 09:50:27;;;;;;;17.58;10.20;;;6.20;99.90;;;;;;5112644;28;20130;-83
2022/03/01 09:52:58;;;;;;;19.63;10.30;;;6.40;99.90;;;;;;5105537;28;20039;-84
2022/03/01 09:55:25;;;;;;;17.65;10.10;;;6.40;99.90;;;;;;5133650;27;20051;-83
2022/03/01 09:57:51;;;;;;;17.05;10.85;;;6.50;99.90;;;;;;5133711;27;20087;-83
2022/03/01 10:00:17;;;;;;;16.70;10.27;;;6.50;99.90;;;;;;5082609;28;20462;-83
2022/03/01 10:02:44;;;;;;;19.42;10.85;;;6.50;99.90;;;;;;5118562;27;20095;-85
2022/03/01 10:05:13;;;;;;;19.52;10.02;;;6.70;99.90;;;;;;5116752;27;20812;-85
2022/03/01 10:07:44;;;;;;;15.60;9.95;;;7.10;99.90;;;;;;5116902;27;20046;-86
2022/03/01 10:10:16;;;;;;;16.73;9.70;;;7.20;99.90;;;;;;5119460;27;20609;-87
2022/03/01 10:12:43;;;;;;;18.45;10.80;;;7.30;99.90;;;;;;5136216;27;20053;-86
2022/03/01 10:15:11;;;;;;;17.38;10.13;;;7.30;99.90;;;;;;5119385;27;20047;-85
2022/03/01 10:17:42;;;;;;;17.67;10.48;;;7.30;99.90;;;;;;5119351;27;20155;-86
2022/03/01 10:20:14;;;;;;;17.77;10.88;;;7.30;99.90;;;;;;5136569;27;20488;-89
2022/03/01 10:22:52;;;;;;;16.92;9.80;;;7.30;99.90;;;;;;5119586;27;20042;-86
2022/03/01 10:25:23;;;;;;;17.73;10.40;;;7.30;99.90;;;;;;5119388;27;20086;-80
2022/03/01 10:27:50;;;;;;;16.13;10.02;;;7.20;99.90;;;;;;5136443;27;20051;-87
2022/03/01 10:30:34;;;;;;;15.82;9.88;;;7.10;99.90;;;;;;5119571;27;20051;-86
2022/03/01 10:33:08;;;;;;;17.88;10.05;;;6.90;99.90;;;;;;5119772;27;20091;-85
2022/03/01 10:35:34;;;;;;;18.80;9.77;;;6.90;99.90;;;;;;5137200;27;20050;-85
2022/03/01 10:38:02;;;;;;;15.00;9.35;;;6.90;99.90;;;;;;5118790;27;20498;-87
2022/03/01 10:40:28;;;;;;;16.98;9.77;;;7.20;99.90;;;;;;5152753;27;20055;-88
2022/03/01 10:43:01;;;;;;;15.20;9.63;;;7.50;99.90;;;;;;5118446;27;20038;-88
2022/03/01 10:45:33;;;;;;;15.13;9.68;;;7.70;99.90;;;;;;5135033;27;20102;-86
2022/03/01 10:47:59;;;;;;;17.60;11.20;;;7.90;99.90;;;;;;5135528;27;20074;-87
2022/03/01 11:37:59;;;;;;;15.18;9.20;;;10.60;99.90;;;;;;4793001;29;20063;-87
2022/03/01 11:40:25;;;;;;;16.00;9.45;;;10.20;99.90;;;;;;4791223;29;20412;-87
2022/03/01 11:42:51;;;;;;;16.75;10.38;;;10.00;99.90;;;;;;4789905;29;20055;-88
2022/03/01 11:45:17;;;;;;;16.15;10.13;;;;;;;;;;4805357;29;20055;-85
2022/03/01 11:47:43;;;;;;;17.52;10.40;;;9.70;99.90;;;;;;4789110;29;20066;-86
2022/03/01 11:50:15;;;;;;;15.93;10.20;;;9.50;99.90;;;;;;4774567;30;20461;-85
2022/03/01 11:53:09;;;;;;;14.80;9.95;;;9.40;99.90;;;;;;4774355;29;20051;-84
2022/03/01 11:55:47;;;;;;;16.42;10.10;;;9.30;99.90;;;;;;4773630;29;20099;-86
2022/03/01 11:58:14;;;;;;;16.48;9.77;;;9.20;99.90;;;;;;4788170;30;20412;-87
2022/03/01 12:00:40;;;;;;;17.20;9.95;;;9.10;99.90;;;;;;4787866;30;20062;-85
2022/03/01 12:03:11;;;;;;;15.90;9.75;;;9.00;99.90;;;;;;4772666;29;20051;-86
2022/03/01 12:05:37;;;;;;;16.98;9.88;;;9.00;99.90;;;;;;4802042;29;20141;-88
2022/03/01 12:08:07;;;;;;;16.77;10.07;;;9.00;99.90;;;;;;4787138;30;20074;-88
2022/03/01 12:10:33;;;;;;;15.70;10.25;;;9.00;99.90;;;;;;4773010;30;20059;-88
2022/03/01 12:13:03;;;;;;;15.18;9.82;;;8.90;99.90;;;;;;4802085;29;20058;-83
2022/03/01 12:15:40;;;;;;;16.98;10.15;;;8.90;99.90;;;;;;4772916;30;20090;-88
2022/03/01 12:18:14;;;;;;;17.17;9.65;;;8.80;99.90;;;;;;4802885;29;20052;-87
2022/03/01 12:20:46;;;;;;;17.85;10.30;;;8.90;99.90;;;;;;4787819;29;20066;-88
2022/03/01 12:23:27;;;;;;;15.10;9.38;;;8.90;99.90;;;;;;4802523;29;20063;-88
2022/03/01 12:25:52;;;;;;;16.98;10.43;;;9.30;99.90;;;;;;4787768;30;20058;-87
2022/03/01 12:28:21;;;;;;;16.90;9.77;;;9.10;99.90;;;;;;4788041;30;20063;-87
2022/03/01 12:30:46;;;;;;;17.88;10.13;;;9.20;99.90;;;;;;4772118;30;20097;-87
2022/03/01 12:33:17;;;;;;;16.02;9.73;;;9.30;99.90;;;;;;4787981;30;20094;-86
2022/03/01 12:35:54;;;;;;;14.80;9.55;;;9.30;99.90;;;;;;4787359;29;20051;-89
2022/03/01 12:38:20;;;;;;;14.80;9.25;;;9.30;99.90;;;;;;4788024;29;20061;-88
2022/03/01 12:40:45;;;;;;;18.38;10.27;;;9.30;99.90;;;;;;4772711;30;20066;-88
2022/03/01 12:43:13;;;;;;;14.18;9.05;;;9.40;99.90;;;;;;4772435;30;20051;-88
2022/03/01 12:45:47;;;;;;;16.38;10.13;;;9.40;99.90;;;;;;4786935;29;20055;-89
2022/03/01 12:48:15;;;;;;;15.88;10.15;;;9.30;99.90;;;;;;4772423;29;20047;-86
2022/03/01 12:50:51;;;;;;;19.45;9.80;;;9.40;99.90;;;;;;4772371;30;20162;-86
2022/03/01 12:53:18;;;;;;;18.23;9.52;;;9.40;99.90;;;;;;4772436;30;20051;-87
2022/03/01 12:55:50;;;;;;;16.63;9.82;;;9.50;99.90;;;;;;4803882;29;20126;-88
2022/03/01 12:58:17;;;;;;;16.33;9.65;;;9.40;99.90;;;;;;4790229;29;20062;-87
2022/03/01 13:00:43;;;;;;;15.65;10.18;;;9.50;99.90;;;;;;4790238;29;20492;-87
2022/03/01 13:03:09;;;;;;;17.20;10.30;;;9.40;99.90;;;;;;4803553;29;20055;-85
2022/03/01 13:05:35;;;;;;;14.75;9.70;;;9.50;99.90;;;;;;4789396;29;20116;-85
2022/03/01 13:08:02;;;;;;;18.67;11.15;;;9.40;99.90;;;;;;4819886;29;20392;-84
2022/03/01 13:10:35;;;;;;;17.10;10.38;;;9.50;99.90;;;;;;4789777;29;20146;-87
2022/03/01 13:13:08;;;;;;;19.25;11.23;;;9.50;99.90;;;;;;4789529;29;20051;-86
2022/03/01 13:15:37;;;;;;;18.15;10.77;;;9.40;99.90;;;;;;4789393;29;20498;-84
2022/03/01 13:18:04;;;;;;;16.02;10.85;;;9.40;99.90;;;;;;4804572;29;20147;-83
2022/03/01 13:20:31;;;;;;;17.38;10.65;;;9.30;99.90;;;;;;4789656;29;20054;-88
2022/03/01 13:23:05;;;;;;;16.13;9.95;;;9.40;99.90;;;;;;4818866;29;20059;-87
2022/03/01 13:25:36;;;;;;;17.60;11.88;;;9.40;99.90;;;;;;4804243;29;20058;-87
2022/03/01 13:28:03;;;;;;;16.10;10.50;;;9.40;99.90;;;;;;4819586;29;20207;-85